Airfield :
LOGIN :

Register | Disclaimer

   EN    FR    IT 

 










Legend :    VFR   Marginal VFR   IFR   Intensive IFR   Very Intensive IFR
Visi :
Ceiling :
>= 8 km
>= 3000ft
5 to 8 km
1000 to 3000 ft
1500m to 5 km
500 to 1000 ft
800 to 1500m
200 to 500 ft
< 800m
< 200 ft
Symbols :   Thunderstorms  Fog  Heavy snow  Heavy precipitations  Wind > 20 kt
SIGMETs :     Misc.  Thunderstorms  Icing  Turbulence  Mountain Waves  Volcanic Ashes






- Airport Elevation : 527 ft
- IATA code : DBV


LDDU - Dubrovnik

CURRENT METAR :
  • 201400Z 10010KT 070V140 9999 -RA FEW007 SCT037 BKN042 07/05 Q1020 TEMPO RA

EXPIRED METARs :
  • 201330Z 11012KT 080V140 9999 FEW010 BKN040 07/05 Q1021 TEMPO RA
  • 201300Z 10012KT 9999 -RA SCT033 BKN040 07/05 Q1021 NOSIG
  • 201230Z 11012KT 9999 -RA FEW004 SCT026 BKN040 07/05 Q1022 NOSIG
  • 201200Z 11011KT 080V140 9999 FEW008 SCT025 BKN040 07/05 Q1022 NOSIG
  • 201130Z 10014KT 9999 FEW028 SCT060 BKN074 07/05 Q1022 NOSIG

TAF TAF LDDU
Valid from the 20 at 12:00 until the 21 at 12:00 UTC


201125Z 2012/2112 11012KT 9999 SCT040 TX08/2012Z TN05/2105Z
TEMPO 2012/2107 RA
PROB30
TEMPO 2021/2101 SHRA FEW030TCU BKN040
BECMG 2100/2102 02015KT
BECMG 2105/2107 02020G30KT
PROB40
TEMPO 2108/2112 02030G45KT



MET'MAP, your aeronautical weather chart ! - Copyright ORBIFLY December 2007 - Disclaimer

ORBIFLY MET'MAP TEAM :

Programming & Development : Alexandra Zaïnal
Concept & original design : Baudouin d'Aumeries
Assistance for programming : Marc-Olivier Méhu
Technical & hardware support : Manuel Goepfert

Contact : metmap@orbifly.com




SOURCES & CREDITS :

   NOAA